sensor_id;sensor_type;location;lat;lon;timestamp;pressure;altitude;pressure_sealevel;temperature;humidity
39739;BME280;25422;48.286;8.484;2023-07-20T00:01:05;94099.31;;;16.30;93.28
39739;BME280;25422;48.286;8.484;2023-07-20T00:03:31;94090.59;;;16.29;93.34
39739;BME280;25422;48.286;8.484;2023-07-20T00:05:56;94101.38;;;16.28;93.99
39739;BME280;25422;48.286;8.484;2023-07-20T00:08:21;94096.91;;;16.22;95.36
39739;BME280;25422;48.286;8.484;2023-07-20T00:10:47;94099.97;;;16.18;95.67
39739;BME280;25422;48.286;8.484;2023-07-20T00:13:13;94101.56;;;16.19;96.42
39739;BME280;25422;48.286;8.484;2023-07-20T00:15:38;94094.06;;;16.16;97.91
39739;BME280;25422;48.286;8.484;2023-07-20T00:18:05;94098.53;;;16.23;98.81
39739;BME280;25422;48.286;8.484;2023-07-20T00:20:30;94109.47;;;16.19;100.00
39739;BME280;25422;48.286;8.484;2023-07-20T00:22:57;94102.97;;;16.15;99.59
39739;BME280;25422;48.286;8.484;2023-07-20T00:25:23;94098.53;;;16.16;99.84
39739;BME280;25422;48.286;8.484;2023-07-20T00:27:49;94092.03;;;16.18;100.00
39739;BME280;25422;48.286;8.484;2023-07-20T00:30:14;94106.25;;;16.17;100.00
39739;BME280;25422;48.286;8.484;2023-07-20T00:32:41;94096.09;;;16.21;100.00
39739;BME280;25422;48.286;8.484;2023-07-20T00:35:07;94093.84;;;16.25;98.86
39739;BME280;25422;48.286;8.484;2023-07-20T00:37:32;94093.63;;;16.26;98.05
39739;BME280;25422;48.286;8.484;2023-07-20T00:39:58;94098.53;;;16.23;96.94
39739;BME280;25422;48.286;8.484;2023-07-20T00:42:24;94088.56;;;16.25;95.97
39739;BME280;25422;48.286;8.484;2023-07-20T00:44:51;94094.47;;;16.27;94.43
39739;BME280;25422;48.286;8.484;2023-07-20T00:47:16;94094.03;;;16.30;93.12
39739;BME280;25422;48.286;8.484;2023-07-20T00:49:42;94097.66;;;16.35;93.11
39739;BME280;25422;48.286;8.484;2023-07-20T00:52:10;94098.47;;;16.43;92.31
39739;BME280;25422;48.286;8.484;2023-07-20T00:54:38;94101.72;;;16.45;92.67
39739;BME280;25422;48.286;8.484;2023-07-20T00:57:04;94084.66;;;16.47;91.87
39739;BME280;25422;48.286;8.484;2023-07-20T00:59:31;94087.28;;;16.47;91.15
39739;BME280;25422;48.286;8.484;2023-07-20T01:01:56;94086.28;;;16.48;91.24
39739;BME280;25422;48.286;8.484;2023-07-20T01:04:22;94085.22;;;16.56;90.57
39739;BME280;25422;48.286;8.484;2023-07-20T01:06:58;94087.66;;;16.58;90.13
39739;BME280;25422;48.286;8.484;2023-07-20T01:09:34;94084.19;;;16.64;94.01
39739;BME280;25422;48.286;8.484;2023-07-20T01:12:32;94082.44;;;16.44;100.00
39739;BME280;25422;48.286;8.484;2023-07-20T01:15:01;94079.84;;;16.17;100.00
39739;BME280;25422;48.286;8.484;2023-07-20T01:17:26;94086.97;;;16.24;100.00
39739;BME280;25422;48.286;8.484;2023-07-20T01:19:52;94076.75;;;16.34;100.00
39739;BME280;25422;48.286;8.484;2023-07-20T01:22:48;94077.38;;;16.36;100.00
39739;BME280;25422;48.286;8.484;2023-07-20T01:25:43;94081.81;;;16.42;99.93
39739;BME280;25422;48.286;8.484;2023-07-20T01:31:25;94076.50;;;16.49;96.40
39739;BME280;25422;48.286;8.484;2023-07-20T01:33:57;94078.34;;;16.48;94.37
39739;BME280;25422;48.286;8.484;2023-07-20T01:36:29;94076.09;;;16.52;93.64
39739;BME280;25422;48.286;8.484;2023-07-20T01:38:56;94077.94;;;16.51;93.37
39739;BME280;25422;48.286;8.484;2023-07-20T01:41:22;94069.03;;;16.46;92.91
39739;BME280;25422;48.286;8.484;2023-07-20T01:43:47;94068.25;;;16.39;93.37
39739;BME280;25422;48.286;8.484;2023-07-20T01:46:12;94071.28;;;16.35;94.17
39739;BME280;25422;48.286;8.484;2023-07-20T01:48:38;94074.53;;;16.31;95.62
39739;BME280;25422;48.286;8.484;2023-07-20T01:51:03;94076.75;;;16.34;96.14
39739;BME280;25422;48.286;8.484;2023-07-20T01:53:29;94064.81;;;16.25;96.72
39739;BME280;25422;48.286;8.484;2023-07-20T01:55:56;94063.59;;;16.21;97.00
39739;BME280;25422;48.286;8.484;2023-07-20T01:58:22;94060.16;;;16.20;97.02
39739;BME280;25422;48.286;8.484;2023-07-20T02:00:47;94068.88;;;16.14;97.93
39739;BME280;25422;48.286;8.484;2023-07-20T02:03:13;94062.19;;;16.05;98.83
39739;BME280;25422;48.286;8.484;2023-07-20T02:05:38;94067.09;;;16.01;99.32
39739;BME280;25422;48.286;8.484;2023-07-20T02:08:04;94060.63;;;15.97;99.76
39739;BME280;25422;48.286;8.484;2023-07-20T02:10:29;94065.06;;;15.96;100.00
39739;BME280;25422;48.286;8.484;2023-07-20T02:12:55;94057.97;;;15.90;100.00
39739;BME280;25422;48.286;8.484;2023-07-20T02:15:20;94061.03;;;15.87;100.00
39739;BME280;25422;48.286;8.484;2023-07-20T02:17:46;94056.75;;;15.79;100.00
39739;BME280;25422;48.286;8.484;2023-07-20T02:20:12;94051.47;;;15.73;100.00
39739;BME280;25422;48.286;8.484;2023-07-20T02:22:38;94066.50;;;15.72;100.00
39739;BME280;25422;48.286;8.484;2023-07-20T02:25:07;94059.81;;;15.76;100.00
39739;BME280;25422;48.286;8.484;2023-07-20T02:27:34;94054.91;;;15.73;100.00
39739;BME280;25422;48.286;8.484;2023-07-20T02:30:00;94056.75;;;15.66;100.00
39739;BME280;25422;48.286;8.484;2023-07-20T02:32:25;94056.75;;;15.59;100.00
39739;BME280;25422;48.286;8.484;2023-07-20T02:34:50;94066.50;;;15.59;100.00
39739;BME280;25422;48.286;8.484;2023-07-20T02:37:16;94060.00;;;15.61;100.00
39739;BME280;25422;48.286;8.484;2023-07-20T02:39:42;94067.72;;;15.63;100.00
39739;BME280;25422;48.286;8.484;2023-07-20T02:42:07;94055.75;;;15.60;100.00
39739;BME280;25422;48.286;8.484;2023-07-20T02:44:33;94060.19;;;15.60;100.00
39739;BME280;25422;48.286;8.484;2023-07-20T02:46:59;94066.72;;;15.57;100.00
39739;BME280;25422;48.286;8.484;2023-07-20T02:49:25;94066.09;;;15.48;100.00
39739;BME280;25422;48.286;8.484;2023-07-20T02:51:50;94059.59;;;15.58;100.00
39739;BME280;25422;48.286;8.484;2023-07-20T02:54:15;94074.19;;;15.54;100.00
39739;BME280;25422;48.286;8.484;2023-07-20T02:56:41;94075.84;;;15.55;100.00
39739;BME280;25422;48.286;8.484;2023-07-20T02:59:06;94075.41;;;15.58;100.00
39739;BME280;25422;48.286;8.484;2023-07-20T03:01:32;94078.66;;;15.46;100.00
39739;BME280;25422;48.286;8.484;2023-07-20T03:03:57;94072.16;;;15.42;100.00
39739;BME280;25422;48.286;8.484;2023-07-20T03:06:23;94082.31;;;15.45;100.00
39739;BME280;25422;48.286;8.484;2023-07-20T03:08:48;94076.41;;;15.50;100.00
39739;BME280;25422;48.286;8.484;2023-07-20T03:11:18;94068.31;;;15.45;100.00
39739;BME280;25422;48.286;8.484;2023-07-20T03:13:44;94081.47;;;15.45;100.00
39739;BME280;25422;48.286;8.484;2023-07-20T03:16:11;94069.72;;;15.54;100.00
39739;BME280;25422;48.286;8.484;2023-07-20T03:18:41;94074.63;;;15.50;100.00
39739;BME280;25422;48.286;8.484;2023-07-20T03:21:07;94080.25;;;15.34;100.00
39739;BME280;25422;48.286;8.484;2023-07-20T03:23:33;94067.66;;;15.16;100.00
39739;BME280;25422;48.286;8.484;2023-07-20T03:25:58;94075.97;;;15.13;100.00
39739;BME280;25422;48.286;8.484;2023-07-20T03:28:24;94080.59;;;14.97;100.00
39739;BME280;25422;48.286;8.484;2023-07-20T03:30:53;94077.34;;;14.89;100.00
39739;BME280;25422;48.286;8.484;2023-07-20T03:33:19;94082.81;;;14.87;100.00
39739;BME280;25422;48.286;8.484;2023-07-20T03:35:45;94077.13;;;14.83;100.00
39739;BME280;25422;48.286;8.484;2023-07-20T03:38:10;94085.41;;;14.80;100.00
39739;BME280;25422;48.286;8.484;2023-07-20T03:40:36;94078.75;;;14.84;100.00
39739;BME280;25422;48.286;8.484;2023-07-20T03:43:01;94080.19;;;14.87;100.00
39739;BME280;25422;48.286;8.484;2023-07-20T03:45:27;94078.31;;;14.74;100.00
39739;BME280;25422;48.286;8.484;2023-07-20T03:47:53;94083.53;;;14.67;100.00
39739;BME280;25422;48.286;8.484;2023-07-20T03:50:18;94093.47;;;14.65;100.00
39739;BME280;25422;48.286;8.484;2023-07-20T03:52:43;94089.84;;;14.66;100.00
39739;BME280;25422;48.286;8.484;2023-07-20T03:55:09;94087.00;;;14.68;100.00
39739;BME280;25422;48.286;8.484;2023-07-20T03:57:35;94085.19;;;14.75;100.00
39739;BME280;25422;48.286;8.484;2023-07-20T04:00:00;94081.75;;;14.75;100.00
39739;BME280;25422;48.286;8.484;2023-07-20T04:02:25;94085.84;;;14.84;100.00
39739;BME280;25422;48.286;8.484;2023-07-20T04:04:51;94085.47;;;14.94;100.00
39739;BME280;25422;48.286;8.484;2023-07-20T04:07:16;94090.09;;;14.92;100.00
39739;BME280;25422;48.286;8.484;2023-07-20T04:09:42;94085.28;;;15.02;100.00
39739;BME280;25422;48.286;8.484;2023-07-20T04:12:07;94092.75;;;14.98;100.00
39739;BME280;25422;48.286;8.484;2023-07-20T04:14:33;94097.81;;;15.00;100.00
39739;BME280;25422;48.286;8.484;2023-07-20T04:16:58;94095.81;;;15.02;100.00
39739;BME280;25422;48.286;8.484;2023-07-20T04:19:25;94100.47;;;15.00;100.00
39739;BME280;25422;48.286;8.484;2023-07-20T04:21:51;94104.31;;;15.04;100.00
39739;BME280;25422;48.286;8.484;2023-07-20T04:24:16;94103.13;;;15.07;100.00
39739;BME280;25422;48.286;8.484;2023-07-20T04:26:42;94096.22;;;15.12;100.00
39739;BME280;25422;48.286;8.484;2023-07-20T04:29:08;94083.47;;;15.16;100.00
39739;BME280;25422;48.286;8.484;2023-07-20T04:31:36;94088.16;;;15.14;100.00
39739;BME280;25422;48.286;8.484;2023-07-20T04:34:02;94084.28;;;15.16;100.00
39739;BME280;25422;48.286;8.484;2023-07-20T04:36:28;94088.16;;;15.14;100.00
39739;BME280;25422;48.286;8.484;2023-07-20T04:38:54;94088.53;;;15.17;100.00
39739;BME280;25422;48.286;8.484;2023-07-20T04:41:21;94084.28;;;15.16;100.00
39739;BME280;25422;48.286;8.484;2023-07-20T04:43:48;94095.44;;;15.18;100.00
39739;BME280;25422;48.286;8.484;2023-07-20T04:46:19;94090.41;;;15.30;100.00
39739;BME280;25422;48.286;8.484;2023-07-20T04:48:46;94095.72;;;15.57;100.00
39739;BME280;25422;48.286;8.484;2023-07-20T04:51:13;94089.41;;;15.65;100.00
39739;BME280;25422;48.286;8.484;2023-07-20T04:53:39;94093.69;;;15.79;100.00
39739;BME280;25422;48.286;8.484;2023-07-20T04:56:06;94090.25;;;15.85;100.00
39739;BME280;25422;48.286;8.484;2023-07-20T04:58:31;94091.06;;;15.93;100.00
39739;BME280;25422;48.286;8.484;2023-07-20T05:00:56;94094.06;;;16.10;100.00
39739;BME280;25422;48.286;8.484;2023-07-20T05:03:22;94097.72;;;16.09;100.00
39739;BME280;25422;48.286;8.484;2023-07-20T05:05:48;94096.91;;;16.22;100.00
39739;BME280;25422;48.286;8.484;2023-07-20T05:08:14;94099.31;;;16.30;100.00
39739;BME280;25422;48.286;8.484;2023-07-20T05:10:39;94101.78;;;16.18;100.00
39739;BME280;25422;48.286;8.484;2023-07-20T05:13:05;94089.97;;;16.34;100.00
39739;BME280;25422;48.286;8.484;2023-07-20T05:15:33;94100.50;;;16.47;100.00
39739;BME280;25422;48.286;8.484;2023-07-20T05:17:59;94102.44;;;16.72;100.00
39739;BME280;25422;48.286;8.484;2023-07-20T05:20:24;94095.47;;;16.84;100.00
39739;BME280;25422;48.286;8.484;2023-07-20T05:22:50;94099.22;;;17.15;100.00
39739;BME280;25422;48.286;8.484;2023-07-20T05:25:15;94097.25;;;17.68;100.00
39739;BME280;25422;48.286;8.484;2023-07-20T05:27:45;94092.59;;;17.89;100.00
39739;BME280;25422;48.286;8.484;2023-07-20T05:30:11;94095.66;;;18.54;95.89
39739;BME280;25422;48.286;8.484;2023-07-20T05:32:37;94099.75;;;18.87;91.66
39739;BME280;25422;48.286;8.484;2023-07-20T05:35:02;94089.22;;;19.60;85.48
39739;BME280;25422;48.286;8.484;2023-07-20T05:37:28;94087.44;;;19.42;82.77
39739;BME280;25422;48.286;8.484;2023-07-20T05:39:53;94090.72;;;19.26;84.12
39739;BME280;25422;48.286;8.484;2023-07-20T05:42:18;94092.13;;;18.98;85.36
39739;BME280;25422;48.286;8.484;2023-07-20T05:44:44;94092.72;;;19.30;84.63
39739;BME280;25422;48.286;8.484;2023-07-20T05:47:09;94080.22;;;19.61;80.90
39739;BME280;25422;48.286;8.484;2023-07-20T05:49:35;94073.94;;;19.98;76.36
39739;BME280;25422;48.286;8.484;2023-07-20T05:52:01;94085.31;;;20.58;69.09
39739;BME280;25422;48.286;8.484;2023-07-20T05:54:26;94084.53;;;21.10;63.89
39739;BME280;25422;48.286;8.484;2023-07-20T05:56:52;94091.97;;;21.99;56.93
39739;BME280;25422;48.286;8.484;2023-07-20T05:59:18;94092.66;;;22.46;54.06
39739;BME280;25422;48.286;8.484;2023-07-20T06:01:45;94090.41;;;22.77;52.33
39739;BME280;25422;48.286;8.484;2023-07-20T06:04:12;94079.97;;;22.19;53.47
39739;BME280;25422;48.286;8.484;2023-07-20T06:06:37;94082.75;;;22.07;52.19
39739;BME280;25422;48.286;8.484;2023-07-20T06:09:03;94092.75;;;22.17;51.62
39739;BME280;25422;48.286;8.484;2023-07-20T06:11:30;94092.75;;;22.00;52.11
39739;BME280;25422;48.286;8.484;2023-07-20T06:13:56;94101.84;;;22.77;49.50
39739;BME280;25422;48.286;8.484;2023-07-20T06:16:22;94101.16;;;22.65;49.01
39739;BME280;25422;48.286;8.484;2023-07-20T06:18:47;94095.00;;;22.08;50.36
39739;BME280;25422;48.286;8.484;2023-07-20T06:21:12;94090.50;;;22.09;50.72
39739;BME280;25422;48.286;8.484;2023-07-20T06:23:38;94095.88;;;22.31;50.53
39739;BME280;25422;48.286;8.484;2023-07-20T06:26:05;94094.47;;;23.51;46.11
39739;BME280;25422;48.286;8.484;2023-07-20T06:28:30;94089.56;;;24.83;43.51
39739;BME280;25422;48.286;8.484;2023-07-20T06:31:03;94081.25;;;24.84;43.19
39739;BME280;25422;48.286;8.484;2023-07-20T06:33:28;94085.56;;;24.05;45.21
39739;BME280;25422;48.286;8.484;2023-07-20T06:35:54;94091.13;;;23.98;45.25
39739;BME280;25422;48.286;8.484;2023-07-20T06:38:20;94085.88;;;24.46;45.18
39739;BME280;25422;48.286;8.484;2023-07-20T06:40:48;94084.16;;;23.92;44.84
39739;BME280;25422;48.286;8.484;2023-07-20T06:43:13;94077.47;;;24.75;43.08
39739;BME280;25422;48.286;8.484;2023-07-20T06:45:39;94078.72;;;25.15;42.49
39739;BME280;25422;48.286;8.484;2023-07-20T06:48:05;94078.19;;;25.18;41.77
39739;BME280;25422;48.286;8.484;2023-07-20T06:50:31;94068.56;;;25.28;40.98
39739;BME280;25422;48.286;8.484;2023-07-20T06:52:56;94078.06;;;25.82;39.95
39739;BME280;25422;48.286;8.484;2023-07-20T06:55:24;94082.34;;;24.88;41.33
39739;BME280;25422;48.286;8.484;2023-07-20T06:57:49;94077.56;;;24.05;43.35
39739;BME280;25422;48.286;8.484;2023-07-20T07:00:15;94073.25;;;24.41;42.82
39739;BME280;25422;48.286;8.484;2023-07-20T07:02:40;94077.38;;;24.60;41.76
39739;BME280;25422;48.286;8.484;2023-07-20T07:05:06;94083.03;;;25.32;40.55
39739;BME280;25422;48.286;8.484;2023-07-20T07:07:31;94084.47;;;24.81;41.53
39739;BME280;25422;48.286;8.484;2023-07-20T07:09:57;94080.97;;;25.54;39.78
39739;BME280;25422;48.286;8.484;2023-07-20T07:12:22;94074.63;;;27.64;35.58
39739;BME280;25422;48.286;8.484;2023-07-20T07:14:48;94083.22;;;27.05;35.65
39739;BME280;25422;48.286;8.484;2023-07-20T07:17:13;94069.22;;;25.76;36.74
39739;BME280;25422;48.286;8.484;2023-07-20T07:19:39;94071.28;;;25.43;38.16
39739;BME280;25422;48.286;8.484;2023-07-20T07:22:06;94071.88;;;24.34;39.90
39739;BME280;25422;48.286;8.484;2023-07-20T07:24:31;94078.97;;;24.55;40.73
39739;BME280;25422;48.286;8.484;2023-07-20T07:26:59;94083.13;;;25.57;39.42
39739;BME280;25422;48.286;8.484;2023-07-20T07:29:25;94077.13;;;24.61;39.89
39739;BME280;25422;48.286;8.484;2023-07-20T07:31:51;94077.28;;;24.97;40.28
39739;BME280;25422;48.286;8.484;2023-07-20T07:34:16;94077.38;;;25.23;39.62
39739;BME280;25422;48.286;8.484;2023-07-20T07:36:43;94080.00;;;25.02;38.89
39739;BME280;25422;48.286;8.484;2023-07-20T07:39:08;94076.63;;;24.27;40.67
39739;BME280;25422;48.286;8.484;2023-07-20T07:41:34;94078.19;;;25.18;39.53
39739;BME280;25422;48.286;8.484;2023-07-20T07:44:00;94091.09;;;24.26;39.96
39739;BME280;25422;48.286;8.484;2023-07-20T07:46:25;94088.16;;;23.35;41.26
39739;BME280;25422;48.286;8.484;2023-07-20T07:48:51;94085.75;;;22.89;42.46
39739;BME280;25422;48.286;8.484;2023-07-20T07:51:16;94082.56;;;22.70;44.20
39739;BME280;25422;48.286;8.484;2023-07-20T07:53:41;94091.16;;;23.16;43.37
39739;BME280;25422;48.286;8.484;2023-07-20T07:56:08;94092.25;;;23.20;42.72
39739;BME280;25422;48.286;8.484;2023-07-20T07:58:34;94078.00;;;23.92;41.75
39739;BME280;25422;48.286;8.484;2023-07-20T08:01:00;94084.00;;;24.09;41.11
39739;BME280;25422;48.286;8.484;2023-07-20T08:03:25;94079.53;;;23.55;41.41
39739;BME280;25422;48.286;8.484;2023-07-20T08:05:54;94086.22;;;23.30;41.82
39739;BME280;25422;48.286;8.484;2023-07-20T08:08:20;94082.84;;;25.44;38.11
39739;BME280;25422;48.286;8.484;2023-07-20T08:10:46;94076.69;;;24.32;38.95
39739;BME280;25422;48.286;8.484;2023-07-20T08:13:12;94079.59;;;24.30;39.63
39739;BME280;25422;48.286;8.484;2023-07-20T08:15:38;94092.00;;;23.22;40.77
39739;BME280;25422;48.286;8.484;2023-07-20T08:18:03;94077.75;;;24.36;39.24
39739;BME280;25422;48.286;8.484;2023-07-20T08:20:29;94078.31;;;24.38;39.61
39739;BME280;25422;48.286;8.484;2023-07-20T08:22:55;94080.41;;;24.26;39.34
39739;BME280;25422;48.286;8.484;2023-07-20T08:25:21;94079.69;;;24.40;39.09
39739;BME280;25422;48.286;8.484;2023-07-20T08:27:46;94082.91;;;22.34;42.98
39739;BME280;25422;48.286;8.484;2023-07-20T08:30:13;94082.75;;;22.07;44.13
39739;BME280;25422;48.286;8.484;2023-07-20T08:32:38;94086.31;;;23.13;42.93
39739;BME280;25422;48.286;8.484;2023-07-20T08:35:05;94082.84;;;24.80;39.15
39739;BME280;25422;48.286;8.484;2023-07-20T08:37:31;94076.16;;;24.35;38.20
39739;BME280;25422;48.286;8.484;2023-07-20T08:39:56;94080.19;;;24.37;38.42
39739;BME280;25422;48.286;8.484;2023-07-20T08:42:22;94076.41;;;25.39;36.34
39739;BME280;25422;48.286;8.484;2023-07-20T08:44:48;94079.22;;;24.54;38.36
39739;BME280;25422;48.286;8.484;2023-07-20T08:47:16;94080.72;;;24.77;38.27
39739;BME280;25422;48.286;8.484;2023-07-20T08:49:41;94084.06;;;25.25;37.32
39739;BME280;25422;48.286;8.484;2023-07-20T08:52:08;94088.25;;;26.05;36.17
39739;BME280;25422;48.286;8.484;2023-07-20T08:54:34;94089.28;;;26.30;35.13
39739;BME280;25422;48.286;8.484;2023-07-20T08:57:05;94086.06;;;26.43;33.31
39739;BME280;25422;48.286;8.484;2023-07-20T08:59:31;94089.09;;;27.18;32.73
39739;BME280;25422;48.286;8.484;2023-07-20T09:02:00;94076.41;;;26.48;33.91
39739;BME280;25422;48.286;8.484;2023-07-20T09:04:27;94080.50;;;26.14;34.36
39739;BME280;25422;48.286;8.484;2023-07-20T09:06:53;94078.84;;;25.92;33.99
39739;BME280;25422;48.286;8.484;2023-07-20T09:09:18;94086.75;;;25.20;35.77
39739;BME280;25422;48.286;8.484;2023-07-20T09:11:47;94087.75;;;25.04;36.84
39739;BME280;25422;48.286;8.484;2023-07-20T09:14:12;94082.16;;;25.11;35.74
39739;BME280;25422;48.286;8.484;2023-07-20T09:16:53;94086.88;;;25.77;35.64
39739;BME280;25422;48.286;8.484;2023-07-20T09:19:20;94080.44;;;25.93;36.65
39739;BME280;25422;48.286;8.484;2023-07-20T09:21:50;94070.75;;;26.54;34.91
39739;BME280;25422;48.286;8.484;2023-07-20T09:24:17;94076.06;;;25.31;35.73
39739;BME280;25422;48.286;8.484;2023-07-20T09:26:44;94069.44;;;23.62;39.58
39739;BME280;25422;48.286;8.484;2023-07-20T09:29:10;94063.69;;;24.08;39.25
39739;BME280;25422;48.286;8.484;2023-07-20T09:31:36;94063.38;;;24.95;37.45
39739;BME280;25422;48.286;8.484;2023-07-20T09:34:01;94063.84;;;24.29;38.21
39739;BME280;25422;48.286;8.484;2023-07-20T09:36:28;94062.41;;;25.32;35.79
39739;BME280;25422;48.286;8.484;2023-07-20T09:38:53;94070.75;;;24.62;37.38
39739;BME280;25422;48.286;8.484;2023-07-20T09:41:21;94066.75;;;24.70;38.57
39739;BME280;25422;48.286;8.484;2023-07-20T09:43:46;94059.72;;;24.11;38.31
39739;BME280;25422;48.286;8.484;2023-07-20T09:46:12;94062.41;;;25.32;36.45
39739;BME280;25422;48.286;8.484;2023-07-20T09:48:37;94052.56;;;24.21;36.85
39739;BME280;25422;48.286;8.484;2023-07-20T09:51:03;94065.50;;;23.43;37.70
39739;BME280;25422;48.286;8.484;2023-07-20T09:53:32;94071.78;;;21.86;42.27
39739;BME280;25422;48.286;8.484;2023-07-20T09:55:58;94067.53;;;22.24;42.10
39739;BME280;25422;48.286;8.484;2023-07-20T09:58:25;94069.59;;;22.56;41.92
39739;BME280;25422;48.286;8.484;2023-07-20T10:00:51;94061.13;;;22.82;41.12
39739;BME280;25422;48.286;8.484;2023-07-20T10:03:19;94054.59;;;22.50;39.95
39739;BME280;25422;48.286;8.484;2023-07-20T10:05:49;94062.13;;;23.20;39.72
39739;BME280;25422;48.286;8.484;2023-07-20T10:08:18;94059.72;;;23.83;37.29
39739;BME280;25422;48.286;8.484;2023-07-20T10:10:44;94056.16;;;24.00;37.91
39739;BME280;25422;48.286;8.484;2023-07-20T10:13:19;94051.53;;;23.30;39.22
39739;BME280;25422;48.286;8.484;2023-07-20T10:15:53;94042.91;;;23.83;39.01
39739;BME280;25422;48.286;8.484;2023-07-20T10:18:31;94039.34;;;23.39;38.82
39739;BME280;25422;48.286;8.484;2023-07-20T10:21:00;94040.66;;;23.69;39.43
39739;BME280;25422;48.286;8.484;2023-07-20T10:23:28;94037.25;;;23.74;37.43
39739;BME280;25422;48.286;8.484;2023-07-20T10:25:54;94028.38;;;23.36;37.47
39739;BME280;25422;48.286;8.484;2023-07-20T10:28:21;94029.78;;;22.72;39.26
39739;BME280;25422;48.286;8.484;2023-07-20T10:30:48;94025.41;;;23.65;37.85
39739;BME280;25422;48.286;8.484;2023-07-20T10:33:16;94030.31;;;23.78;38.48
39739;BME280;25422;48.286;8.484;2023-07-20T10:35:53;94024.50;;;24.72;36.63
39739;BME280;25422;48.286;8.484;2023-07-20T10:38:19;94021.94;;;24.45;36.81
39739;BME280;25422;48.286;8.484;2023-07-20T10:40:54;94023.25;;;24.37;36.27
39739;BME280;25422;48.286;8.484;2023-07-20T10:43:20;94011.50;;;24.38;36.77
39739;BME280;25422;48.286;8.484;2023-07-20T10:45:52;94016.53;;;24.34;36.16
39739;BME280;25422;48.286;8.484;2023-07-20T10:48:20;94012.06;;;23.97;36.79
39739;BME280;25422;48.286;8.484;2023-07-20T10:53:34;94019.97;;;24.24;37.54
39739;BME280;25422;48.286;8.484;2023-07-20T10:56:27;94011.00;;;25.25;36.13
39739;BME280;25422;48.286;8.484;2023-07-20T10:58:59;94008.13;;;25.57;34.72
39739;BME280;25422;48.286;8.484;2023-07-20T11:01:29;94011.06;;;25.82;33.37
39739;BME280;25422;48.286;8.484;2023-07-20T11:03:59;94015.59;;;25.40;33.58
39739;BME280;25422;48.286;8.484;2023-07-20T11:09:04;94011.00;;;26.33;32.44
39739;BME280;25422;48.286;8.484;2023-07-20T11:11:30;94006.75;;;25.96;31.34
39739;BME280;25422;48.286;8.484;2023-07-20T11:16:40;93991.97;;;26.35;29.68
39739;BME280;25422;48.286;8.484;2023-07-20T11:19:23;94003.41;;;26.56;31.39
39739;BME280;25422;48.286;8.484;2023-07-20T11:21:58;94005.41;;;26.95;29.93
39739;BME280;25422;48.286;8.484;2023-07-20T11:24:24;93999.00;;;25.58;32.37
39739;BME280;25422;48.286;8.484;2023-07-20T11:26:54;93998.41;;;24.47;35.14
39739;BME280;25422;48.286;8.484;2023-07-20T11:29:21;93994.91;;;25.10;34.76
39739;BME280;25422;48.286;8.484;2023-07-20T11:31:47;93982.66;;;25.50;32.55
39739;BME280;25422;48.286;8.484;2023-07-20T11:34:14;93978.06;;;25.30;33.63
39739;BME280;25422;48.286;8.484;2023-07-20T11:36:42;93984.47;;;25.03;32.43
39739;BME280;25422;48.286;8.484;2023-07-20T11:39:14;93982.84;;;24.28;33.21
39739;BME280;25422;48.286;8.484;2023-07-20T11:41:46;93951.66;;;23.58;35.17
39739;BME280;25422;48.286;8.484;2023-07-20T11:44:12;93983.91;;;24.27;34.85
39739;BME280;25422;48.286;8.484;2023-07-20T11:46:44;93983.44;;;24.40;32.58
39739;BME280;25422;48.286;8.484;2023-07-20T11:49:10;93972.94;;;24.97;32.73
39739;BME280;25422;48.286;8.484;2023-07-20T11:51:36;93978.09;;;25.91;31.54
39739;BME280;25422;48.286;8.484;2023-07-20T11:54:03;93981.72;;;26.52;30.23
39739;BME280;25422;48.286;8.484;2023-07-20T11:56:29;93970.03;;;25.19;32.85
39739;BME280;25422;48.286;8.484;2023-07-20T11:58:57;93965.78;;;25.34;32.48
39739;BME280;25422;48.286;8.484;2023-07-20T12:01:25;93960.13;;;24.36;34.18
39739;BME280;25422;48.286;8.484;2023-07-20T12:03:51;93952.69;;;25.42;31.61
39739;BME280;25422;48.286;8.484;2023-07-20T12:06:17;93946.78;;;24.41;32.37
39739;BME280;25422;48.286;8.484;2023-07-20T12:08:43;93942.44;;;25.03;32.16
39739;BME280;25422;48.286;8.484;2023-07-20T12:11:09;93952.53;;;24.75;32.74
39739;BME280;25422;48.286;8.484;2023-07-20T12:13:39;93961.44;;;25.02;33.43
39739;BME280;25422;48.286;8.484;2023-07-20T12:16:14;93952.91;;;25.72;31.56
39739;BME280;25422;48.286;8.484;2023-07-20T12:18:43;93951.00;;;25.11;32.15
39739;BME280;25422;48.286;8.484;2023-07-20T12:21:09;93943.25;;;25.09;32.14
39739;BME280;25422;48.286;8.484;2023-07-20T12:23:39;93953.38;;;26.20;31.46
39739;BME280;25422;48.286;8.484;2023-07-20T12:26:09;93950.47;;;26.82;30.73
39739;BME280;25422;48.286;8.484;2023-07-20T12:28:41;93945.41;;;25.74;32.91
39739;BME280;25422;48.286;8.484;2023-07-20T12:31:10;93940.06;;;25.84;31.04
39739;BME280;25422;48.286;8.484;2023-07-20T12:33:37;93940.50;;;26.28;30.69
39739;BME280;25422;48.286;8.484;2023-07-20T12:36:04;93946.06;;;27.02;29.90
39739;BME280;25422;48.286;8.484;2023-07-20T12:38:29;93935.81;;;26.59;30.76
39739;BME280;25422;48.286;8.484;2023-07-20T12:40:56;93932.19;;;26.84;29.54
39739;BME280;25422;48.286;8.484;2023-07-20T12:43:22;93937.63;;;26.69;30.00
39739;BME280;25422;48.286;8.484;2023-07-20T12:45:47;93922.13;;;26.55;30.40
39739;BME280;25422;48.286;8.484;2023-07-20T12:48:13;93933.47;;;27.02;30.13
39739;BME280;25422;48.286;8.484;2023-07-20T12:50:39;93930.50;;;26.49;30.08
39739;BME280;25422;48.286;8.484;2023-07-20T12:53:04;93926.63;;;26.75;29.31
39739;BME280;25422;48.286;8.484;2023-07-20T12:55:29;93925.53;;;26.11;31.70
39739;BME280;25422;48.286;8.484;2023-07-20T12:57:55;93922.13;;;25.49;31.96
39739;BME280;25422;48.286;8.484;2023-07-20T13:00:21;93916.50;;;25.66;32.40
39739;BME280;25422;48.286;8.484;2023-07-20T13:02:48;93911.16;;;25.19;33.17
39739;BME280;25422;48.286;8.484;2023-07-20T13:05:14;93915.41;;;25.82;31.80
39739;BME280;25422;48.286;8.484;2023-07-20T13:07:40;93919.63;;;25.99;31.27